Time;durP1;ratioP1;P1;durP2;ratioP2;P2;SDS_P1;SDS_P2;PMS_P1;PMS_P2;Temp;Humidity;BMP_temperature;BMP_pressure;BME280_temperature;BME280_humidity;BME280_pressure;Samples;Min_cycle;Max_cycle;Signal;HPM_P1;HPM_P2
2023/09/06 15:09:18;;;;;;;4.70;3.70;;;;;;;26.47;36.26;100891.44;129572;1304;545953;-75
2023/09/06 15:12:19;;;;;;;5.40;3.80;;;;;;;26.40;36.81;100892.65;130363;1311;22506;-76
2023/09/06 15:15:20;;;;;;;4.60;3.50;;;;;;;26.33;36.73;100893.49;129952;1308;24286;-75
2023/09/06 15:18:23;;;;;;;5.70;3.40;;;;;;;26.31;36.66;100890.53;129750;1308;25301;-76
2023/09/06 15:21:24;;;;;;;5.40;4.10;;;;;;;26.28;36.85;100886.46;132262;1299;175854;-78
2023/09/06 15:24:25;;;;;;;4.40;3.90;;;;;;;26.31;37.45;100888.80;129915;1305;22721;-76
2023/09/06 15:27:28;;;;;;;4.50;3.90;;;;;;;26.37;36.83;100888.86;129851;1308;23589;-77
2023/09/06 15:30:32;;;;;;;5.00;3.90;;;;;;;26.41;37.07;100888.42;129772;1308;23443;-72
2023/09/06 15:33:33;;;;;;;4.80;4.10;;;;;;;26.40;37.34;100887.44;131270;1311;22273;-85
2023/09/06 15:36:34;;;;;;;6.30;4.10;;;;;;;26.38;37.43;100886.64;129744;1305;25075;-76
2023/09/06 15:39:37;;;;;;;5.10;3.70;;;;;;;26.32;37.21;100887.99;130238;1305;23645;-75
2023/09/06 15:42:38;;;;;;;5.70;3.80;;;;;;;26.24;37.47;100890.23;132153;1311;22562;-78
2023/09/06 15:45:39;;;;;;;4.40;3.70;;;;;;;26.23;37.74;100889.66;129561;1305;22553;-77
2023/09/06 15:48:39;;;;;;;4.40;3.50;;;;;;;26.24;37.72;100887.16;130813;1303;22329;-75
2023/09/06 15:51:40;;;;;;;6.10;4.00;;;;;;;26.25;37.70;100887.31;131565;1304;22261;-77
2023/09/06 15:54:41;;;;;;;11.80;4.60;;;;;;;26.24;38.09;100884.14;132543;1305;22584;-78
2023/09/06 15:57:43;;;;;;;6.30;3.80;;;;;;;26.23;38.40;100884.94;129770;1305;23029;-75
2023/09/06 16:00:44;;;;;;;4.40;3.70;;;;;;;26.20;39.45;100886.58;130580;1305;22567;-75
2023/09/06 16:03:45;;;;;;;5.80;3.60;;;;;;;26.17;40.88;100888.40;133347;1302;22391;-77
2023/09/06 16:06:45;;;;;;;4.60;3.90;;;;;;;26.09;41.25;100886.34;133357;1311;22205;-75
2023/09/06 16:09:46;;;;;;;7.10;4.10;;;;;;;25.99;41.61;100887.82;133616;1301;22372;-74
2023/09/06 16:12:47;;;;;;;6.10;4.00;;;;;;;25.96;42.70;100891.70;133678;1306;23140;-76
2023/09/06 16:15:47;;;;;;;5.50;4.10;;;;;;;25.93;44.08;100891.40;133648;1301;22365;-78
2023/09/06 16:18:50;;;;;;;4.20;3.80;;;;;;;25.87;43.89;100895.91;133639;1302;22481;-76
2023/09/06 16:21:50;;;;;;;4.60;4.10;;;;;;;25.80;44.32;100896.50;133572;1305;23595;-79
2023/09/06 16:24:51;;;;;;;5.50;3.70;;;;;;;25.73;44.61;100894.21;133544;1304;22412;-77
2023/09/06 16:27:55;;;;;;;9.00;4.00;;;;;;;25.66;45.24;100898.73;133557;1309;22406;-78
2023/09/06 16:30:56;;;;;;;6.70;3.90;;;;;;;25.58;45.86;100897.73;133519;1301;22567;-76
2023/09/06 16:33:56;;;;;;;6.90;3.80;;;;;;;25.50;46.13;100899.17;133484;1304;22415;-77
2023/09/06 16:36:57;;;;;;;4.70;3.90;;;;;;;25.40;45.73;100900.96;133550;1301;22442;-75
2023/09/06 16:40:00;;;;;;;7.00;3.90;;;;;;;25.31;46.15;100904.67;133564;1301;22368;-79
2023/09/06 16:43:01;;;;;;;5.20;3.30;;;;;;;25.21;46.21;100902.27;133538;1301;23112;-75
2023/09/06 16:46:02;;;;;;;4.50;3.70;;;;;;;25.12;46.55;100904.90;133539;1309;22344;-78
2023/09/06 16:49:05;;;;;;;5.00;4.30;;;;;;;25.02;47.13;100907.33;133537;1301;22997;-75
2023/09/06 16:52:09;;;;;;;5.00;4.10;;;;;;;24.83;46.99;100909.52;133594;1301;22461;-75
2023/09/06 16:55:09;;;;;;;6.40;3.80;;;;;;;24.68;46.72;100906.83;133508;1301;22460;-76
2023/09/06 16:58:10;;;;;;;5.20;4.40;;;;;;;24.46;46.83;100908.72;133508;1302;23203;-76
2023/09/06 17:01:11;;;;;;;7.00;4.20;;;;;;;24.07;46.96;100906.69;133520;1302;22407;-76
2023/09/06 17:04:12;;;;;;;5.10;4.40;;;;;;;23.92;47.33;100909.02;133521;1302;24418;-73
2023/09/06 17:07:15;;;;;;;13.60;5.00;;;;;;;23.80;48.14;100911.69;133538;1304;22374;-77
2023/09/06 17:10:19;;;;;;;11.40;4.70;;;;;;;23.65;49.14;100913.00;133564;1301;22353;-77
2023/09/06 17:13:19;;;;;;;7.90;4.70;;;;;;;23.47;50.16;100915.48;133490;1301;22478;-75
2023/09/06 17:16:20;;;;;;;7.20;3.80;;;;;;;23.28;50.97;100913.16;133545;1301;22572;-77
2023/09/06 17:19:23;;;;;;;6.20;4.40;;;;;;;23.09;51.63;100913.78;133541;1301;23095;-73
2023/09/06 17:22:27;;;;;;;8.00;4.20;;;;;;;22.92;52.11;100917.16;133572;1301;22382;-77
2023/09/06 17:25:32;;;;;;;4.70;4.20;;;;;;;22.68;52.48;100921.13;133618;1299;22500;-78
2023/09/06 17:28:36;;;;;;;10.30;5.10;;;;;;;22.38;52.99;100927.64;133588;1301;22339;-76
2023/09/06 17:31:40;;;;;;;4.90;4.40;;;;;;;22.16;53.55;100925.49;133627;1309;23154;-75
2023/09/06 17:34:41;;;;;;;8.90;4.20;;;;;;;21.89;54.10;100928.55;133607;1301;22554;-75
2023/09/06 17:37:42;;;;;;;6.40;4.60;;;;;;;21.70;54.71;100932.36;133576;1301;22368;-75
2023/09/06 17:40:51;;;;;;;6.80;4.10;;;;;;;21.52;55.03;100930.78;133590;1301;22444;-74
2023/09/06 17:43:55;;;;;;;25.50;6.00;;;;;;;21.27;55.47;100931.71;133624;1302;22504;-74
2023/09/06 17:46:56;;;;;;;34.90;5.80;;;;;;;21.07;56.15;100934.77;133590;1301;23012;-76
2023/09/06 17:49:57;;;;;;;16.20;5.70;;;;;;;20.89;56.79;100938.20;133577;1301;22497;-75
2023/09/06 17:53:09;;;;;;;16.90;5.50;;;;;;;20.70;57.51;100941.02;133617;1302;22416;-74
2023/09/06 17:56:24;;;;;;;9.50;5.60;;;;;;;20.53;58.13;100944.23;133603;1301;22507;-74
2023/09/06 17:59:27;;;;;;;8.40;4.70;;;;;;;20.39;58.48;100947.05;133599;1301;22505;-75
2023/09/06 18:02:32;;;;;;;11.10;4.50;;;;;;;20.26;58.82;100950.98;133573;1301;22412;-75
2023/09/06 18:05:33;;;;;;;10.00;4.40;;;;;;;20.12;59.28;100951.58;133576;1301;22373;-75
2023/09/06 18:08:34;;;;;;;6.70;4.40;;;;;;;19.99;59.63;100957.92;133538;1305;22431;-75
2023/09/06 18:11:36;;;;;;;5.50;4.80;;;;;;;19.88;59.97;100955.77;133596;1301;22306;-74
2023/09/06 18:14:37;;;;;;;6.70;4.60;;;;;;;19.77;60.56;100956.45;133564;1302;22256;-75
2023/09/06 18:17:45;;;;;;;8.50;5.80;;;;;;;19.60;61.08;100954.51;133573;1295;22621;-76
2023/09/06 18:20:48;;;;;;;7.50;5.40;;;;;;;19.43;61.65;100959.56;133553;1301;22420;-75
2023/09/06 18:23:52;;;;;;;8.00;5.30;;;;;;;19.35;62.14;100959.67;133587;1301;22406;-75
2023/09/06 18:26:52;;;;;;;8.10;5.70;;;;;;;19.22;62.54;100958.03;133539;1301;22437;-75
2023/09/06 18:29:57;;;;;;;8.70;5.00;;;;;;;19.12;62.97;100955.94;133534;1301;22420;-75
2023/09/06 18:33:01;;;;;;;6.90;5.20;;;;;;;18.99;63.34;100961.45;133483;1304;22435;-75
2023/09/06 18:36:05;;;;;;;7.60;4.90;;;;;;;18.83;63.80;100961.13;133542;1302;22322;-75
2023/09/06 18:39:14;;;;;;;13.00;4.70;;;;;;;18.67;64.21;100962.61;133572;1304;22263;-75
2023/09/06 18:42:15;;;;;;;9.00;5.40;;;;;;;18.53;64.38;100960.98;133554;1302;22481;-75
2023/09/06 18:45:26;;;;;;;10.90;5.50;;;;;;;18.38;65.06;100959.72;133553;1302;22222;-75
2023/09/06 18:48:27;;;;;;;5.60;5.00;;;;;;;18.25;65.57;100959.23;133496;1301;22202;-75
2023/09/06 18:51:28;;;;;;;9.00;5.80;;;;;;;18.12;65.49;100963.19;133577;1302;22409;-75
2023/09/06 18:54:29;;;;;;;5.90;4.80;;;;;;;18.03;66.11;100965.08;133551;1302;22226;-75
2023/09/06 18:57:30;;;;;;;9.20;4.90;;;;;;;17.99;66.57;100967.92;133560;1301;23081;-73
2023/09/06 19:00:34;;;;;;;6.90;4.70;;;;;;;18.06;66.58;100970.63;133593;1301;22462;-77
2023/09/06 19:03:40;;;;;;;7.20;4.50;;;;;;;18.14;66.03;100968.57;133590;1307;22411;-73
2023/09/06 19:06:43;;;;;;;7.10;5.10;;;;;;;18.18;65.80;100971.04;133421;1301;22467;-74
2023/09/06 19:09:47;;;;;;;13.00;7.30;;;;;;;18.21;65.87;100974.27;133538;1301;22372;-74
2023/09/06 19:12:51;;;;;;;17.20;9.50;;;;;;;18.22;66.04;100975.86;133584;1302;22347;-76
2023/09/06 19:15:52;;;;;;;17.70;8.50;;;;;;;18.24;65.97;100973.71;133552;1302;23131;-74
2023/09/06 19:18:53;;;;;;;23.70;13.30;;;;;;;18.25;65.79;100974.11;133339;1304;23233;-74
2023/09/06 19:21:57;;;;;;;15.20;9.20;;;;;;;18.22;65.57;100969.49;133593;1301;23237;-74
2023/09/06 19:24:59;;;;;;;11.20;7.10;;;;;;;17.94;65.27;100967.70;133585;1289;22262;-76
2023/09/06 19:28:03;;;;;;;13.30;7.80;;;;;;;17.67;65.72;100969.86;133538;1302;22475;-76
2023/09/06 19:31:05;;;;;;;13.60;7.90;;;;;;;17.45;65.88;100969.11;133568;1301;23144;-75
2023/09/06 19:34:08;;;;;;;12.90;7.60;;;;;;;17.30;65.91;100966.59;133569;1301;22483;-75
2023/09/06 19:37:12;;;;;;;12.60;7.50;;;;;;;17.14;66.19;100964.08;133585;1302;23138;-75
2023/09/06 19:40:15;;;;;;;13.30;6.90;;;;;;;17.00;66.41;100962.02;133528;1294;22301;-75
2023/09/06 19:43:19;;;;;;;9.20;6.60;;;;;;;16.88;66.79;100963.73;133358;1301;23216;-75
2023/09/06 19:46:21;;;;;;;10.20;7.20;;;;;;;16.79;67.31;100967.73;133512;1304;22375;-75
2023/09/06 19:49:22;;;;;;;10.80;6.60;;;;;;;16.67;67.28;100969.73;133519;1302;22476;-75
2023/09/06 19:52:23;;;;;;;8.10;6.60;;;;;;;16.57;67.41;100970.79;133499;1301;22391;-75
2023/09/06 19:55:24;;;;;;;7.60;6.30;;;;;;;16.44;67.55;100975.06;133598;1301;22355;-75
2023/09/06 19:58:24;;;;;;;8.70;6.20;;;;;;;16.28;68.01;100982.45;133616;1301;22410;-75
2023/09/06 20:01:25;;;;;;;11.40;6.20;;;;;;;16.20;67.98;100983.64;133605;1301;22471;-74
2023/09/06 20:04:28;;;;;;;8.60;6.20;;;;;;;16.12;67.96;100984.05;133584;1301;23147;-74
2023/09/06 20:07:29;;;;;;;10.60;5.90;;;;;;;16.04;67.87;100992.70;133620;1301;22944;-76
2023/09/06 20:10:30;;;;;;;10.20;5.70;;;;;;;15.92;68.18;100994.45;133576;1302;22445;-75
2023/09/06 20:13:32;;;;;;;9.20;6.60;;;;;;;15.80;68.73;100994.41;133646;1301;22449;-75
2023/09/06 20:16:34;;;;;;;9.20;6.30;;;;;;;15.75;69.67;100999.33;133607;1302;23321;-75
2023/09/06 20:19:35;;;;;;;10.00;7.00;;;;;;;15.67;70.07;101002.32;133592;1302;22546;-75
2023/09/06 20:22:36;;;;;;;12.90;8.30;;;;;;;15.57;70.53;101003.98;133578;1301;22420;-75
2023/09/06 20:25:37;;;;;;;12.30;7.80;;;;;;;15.46;70.51;101004.15;133656;1301;22859;-75
2023/09/06 20:28:38;;;;;;;7.70;6.60;;;;;;;15.41;70.32;101004.61;133620;1302;22456;-75
2023/09/06 20:31:40;;;;;;;9.20;6.80;;;;;;;15.35;70.08;101005.80;133637;1301;22242;-75
2023/09/06 20:34:42;;;;;;;12.10;7.50;;;;;;;15.28;70.29;101003.66;133599;1301;22294;-75
2023/09/06 20:37:43;;;;;;;12.70;8.30;;;;;;;15.19;70.32;101005.98;133610;1301;22430;-75
2023/09/06 20:40:45;;;;;;;13.90;8.80;;;;;;;15.10;70.49;101011.74;133627;1301;22427;-75
2023/09/06 20:43:46;;;;;;;13.30;8.40;;;;;;;15.04;70.94;101015.27;133587;1301;22348;-75
2023/09/06 20:47:00;;;;;;;;;;;;;;;14.93;70.85;101012.25;133643;1301;23442;-75
2023/09/06 20:50:01;;;;;;;11.90;7.40;;;;;;;14.86;71.02;101012.31;133634;1298;22219;-74
2023/09/06 20:53:07;;;;;;;13.70;8.10;;;;;;;14.82;70.92;101011.73;133586;1301;22379;-74
2023/09/06 20:56:09;;;;;;;11.10;8.00;;;;;;;14.77;71.27;101015.42;133620;1305;22432;-75
2023/09/06 20:59:26;;;;;;;10.60;8.30;;;;;;;14.73;71.48;101010.77;133624;1307;22229;-75
2023/09/06 21:02:26;;;;;;;13.20;9.50;;;;;;;14.63;71.46;101014.56;133641;1302;22527;-75
2023/09/06 21:05:30;;;;;;;17.60;9.50;;;;;;;14.55;71.82;101017.85;133630;1301;22458;-75
2023/09/06 21:08:30;;;;;;;12.70;9.40;;;;;;;14.54;72.04;101018.55;133618;1309;22396;-75
2023/09/06 21:11:32;;;;;;;14.60;9.00;;;;;;;14.49;72.41;101018.75;133596;1305;23384;-75
2023/09/06 21:14:32;;;;;;;13.00;8.80;;;;;;;14.43;72.70;101022.30;133620;1301;22476;-75
2023/09/06 21:17:33;;;;;;;;;;;;;;;14.37;73.15;101023.39;133732;1301;23208;-75
2023/09/06 21:20:34;;;;;;;9.50;7.10;;;;;;;14.30;73.44;101022.64;133729;1301;22455;-75
2023/09/06 21:23:36;;;;;;;14.20;9.10;;;;;;;14.25;73.41;101025.48;133692;1301;23196;-75
2023/09/06 21:26:39;;;;;;;14.20;8.20;;;;;;;14.21;73.95;101025.56;133698;1289;22236;-75
2023/09/06 21:29:40;;;;;;;13.80;9.10;;;;;;;14.16;73.70;101025.36;133679;1301;23117;-75
2023/09/06 21:32:40;;;;;;;;;;;;;;;14.03;73.99;101026.83;133723;1301;22589;-75
2023/09/06 21:35:43;;;;;;;14.40;9.10;;;;;;;13.90;74.49;101027.66;133707;1301;22456;-75
2023/09/06 21:38:43;;;;;;;13.00;8.90;;;;;;;13.84;74.61;101030.57;133689;1302;23553;-75
2023/09/06 21:41:44;;;;;;;;;;;;;;;13.80;75.02;101031.80;133729;1301;22464;-75
2023/09/06 21:44:44;;;;;;;10.60;8.40;;;;;;;13.72;75.36;101034.45;133673;1301;22440;-75
2023/09/06 21:47:45;;;;;;;;;;;;;;;13.63;75.48;101036.23;133714;1302;22601;-75
2023/09/06 21:50:51;;;;;;;10.40;7.50;;;;;;;13.54;75.58;101037.55;133626;1301;22361;-75
2023/09/06 21:53:51;;;;;;;14.30;9.70;;;;;;;13.49;75.63;101036.92;133663;1296;22441;-75
2023/09/06 21:56:52;;;;;;;17.80;9.70;;;;;;;13.45;76.09;101035.73;133670;1301;22401;-75
2023/09/06 21:59:52;;;;;;;;;;;;;;;13.40;76.11;101034.63;133721;1297;22451;-75
2023/09/06 22:02:53;;;;;;;14.70;9.40;;;;;;;13.32;75.95;101036.40;133678;1301;22247;-75
2023/09/06 22:06:12;;;;;;;15.70;8.80;;;;;;;13.29;76.03;101037.77;133705;1301;22502;-75
2023/09/06 22:09:31;;;;;;;16.20;10.00;;;;;;;13.26;76.12;101043.38;133694;1301;22458;-75
2023/09/06 22:12:50;;;;;;;16.60;9.70;;;;;;;13.23;76.02;101045.76;133694;1301;23021;-75
2023/09/06 22:15:51;;;;;;;;;;;;;;;13.19;76.17;101051.55;133701;1302;22457;-75
2023/09/06 22:18:53;;;;;;;14.20;8.70;;;;;;;13.12;75.95;101053.39;133650;1304;22415;-75
2023/09/06 22:21:54;;;;;;;17.10;9.40;;;;;;;13.06;76.00;101056.66;133677;1304;23072;-74
2023/09/06 22:24:54;;;;;;;;;;;;;;;13.02;76.18;101058.31;133598;1304;22494;-75
2023/09/06 22:27:57;;;;;;;16.00;10.30;;;;;;;12.96;76.70;101056.77;133684;1308;23127;-75
2023/09/06 22:30:58;;;;;;;15.60;10.00;;;;;;;12.89;76.94;101061.42;133600;1302;22294;-75
2023/09/06 22:33:58;;;;;;;17.80;11.30;;;;;;;12.85;77.11;101062.40;133611;1308;22510;-75
2023/09/06 22:36:59;;;;;;;;;;;;;;;12.84;77.42;101059.48;133705;1302;23118;-74
2023/09/06 22:39:59;;;;;;;16.20;10.10;;;;;;;12.76;77.46;101062.64;133718;1301;22489;-75
2023/09/06 22:43:00;;;;;;;;;;;;;;;12.69;77.62;101062.61;133708;1305;22448;-75
2023/09/06 22:46:01;;;;;;;14.60;9.50;;;;;;;12.67;77.85;101067.45;133725;1308;22447;-75
2023/09/06 22:49:01;;;;;;;14.90;10.10;;;;;;;12.67;77.96;101071.18;133699;1308;22267;-75
2023/09/06 22:52:03;;;;;;;15.50;9.30;;;;;;;12.66;77.82;101072.86;133730;1304;23048;-75
2023/09/06 22:55:04;;;;;;;19.60;10.20;;;;;;;12.62;77.38;101071.81;133685;1308;22251;-75
2023/09/06 22:58:05;;;;;;;14.60;8.40;;;;;;;12.58;77.41;101072.06;133708;1304;23310;-75
2023/09/06 23:01:06;;;;;;;;;;;;;;;12.54;77.40;101070.67;133681;1305;23307;-75
2023/09/06 23:04:06;;;;;;;15.00;9.10;;;;;;;12.51;77.41;101069.82;133720;1301;22469;-75
2023/09/06 23:07:07;;;;;;;15.50;9.70;;;;;;;12.48;77.32;101070.92;133676;1303;22457;-75
2023/09/06 23:10:09;;;;;;;16.70;10.90;;;;;;;12.45;77.59;101070.87;133593;1305;22274;-75
2023/09/06 23:13:10;;;;;;;15.60;10.40;;;;;;;12.44;77.69;101074.95;133680;1301;23229;-75
2023/09/06 23:16:12;;;;;;;17.00;9.40;;;;;;;12.40;77.85;101074.30;133677;1301;22423;-75
2023/09/06 23:19:23;;;;;;;19.60;9.50;;;;;;;12.30;77.94;101075.95;133699;1305;22360;-75
2023/09/06 23:22:24;;;;;;;15.10;10.70;;;;;;;12.26;78.07;101079.45;133692;1301;22419;-75
2023/09/06 23:25:31;;;;;;;12.50;9.30;;;;;;;12.25;78.45;101082.14;133688;1301;23467;-75
2023/09/06 23:28:34;;;;;;;16.30;10.60;;;;;;;12.21;78.36;101083.48;133709;1301;22444;-75
2023/09/06 23:31:37;;;;;;;16.10;12.00;;;;;;;12.12;78.63;101086.25;133678;1301;22347;-75
2023/09/06 23:34:39;;;;;;;13.30;10.10;;;;;;;12.06;78.81;101083.48;133668;1302;22473;-75
2023/09/06 23:37:40;;;;;;;16.20;9.60;;;;;;;12.02;79.18;101084.66;133664;1301;23270;-75
2023/09/06 23:40:43;;;;;;;14.50;10.10;;;;;;;12.01;79.37;101087.58;133674;1301;22172;-75
2023/09/06 23:43:44;;;;;;;14.40;10.30;;;;;;;12.03;79.48;101085.54;133671;1302;23064;-75
2023/09/06 23:46:46;;;;;;;17.50;11.10;;;;;;;12.07;79.76;101089.67;133740;1302;22422;-75
2023/09/06 23:49:47;;;;;;;14.80;10.60;;;;;;;12.14;80.17;101088.98;133709;1301;22479;-75
2023/09/06 23:52:52;;;;;;;;;;;;;;;12.21;80.40;101087.19;133733;1301;23276;-75
2023/09/06 23:55:57;;;;;;;15.30;10.20;;;;;;;12.26;80.42;101084.00;133762;1298;22286;-75
2023/09/06 23:58:57;;;;;;;13.40;10.00;;;;;;;12.28;80.35;101085.95;133750;1300;22467;-75
